Lake City, South Carolina
Current Conditions -  °F | °C
As of 10:53 AM on Sunday 21 Dec 2014 (Local Time) from KFLO Reporting Station
Scattered Clouds Scattered Clouds  
Wind Chill: 44°   Ceiling: Unl
Heat Index: 48°   Visibility: 10mi
Dew Point: 37°   Wind: 8mph
Humidity: 66%   Direction: 20°NNE
Pressure: 30.28"   Gusts: NA
Location:  33.87°N, 79.75°W
Report Text: KFLO 211553Z 02007KT 10SM SCT070 09/03 A3028 RMK AO2 SLP251 T00890028
Loading
Personal Weather Stations






























Interactive Weather Map New forecast layout! Learn more

10-Day Weather Forecast

Advertisements
Track Severe Weather on mobile